Pen Mar, Pennsylvania
Current Conditions -  °F | °C
As of 2:53 PM on Friday 24 Oct 2014 (Local Time) from KHGR Reporting Station
Clear Clear  
Wind Chill: 19°   Ceiling: Unl
Heat Index: 19°   Visibility: 10mi
Dew Point:   Wind: 13mph
Humidity: 29%   Direction: 320°NW
Pressure: 29.92"   Gusts: NA
Location:  39.7777°N, 77.5693°W
Report Text: KHGR 241853Z 32011KT 10SM CLR 19/01 A2992 RMK AO2 SLP139 T01890006
Loading
Personal Weather Stations






























Interactive Weather Map
Tropical Storm Tracking
New forecast layout! Learn more

10-Day Weather Forecast

Advertisements
Track Severe Weather on mobile